Vancouver International Airport
CYVR : now visible

Airfield :











YOU CAN JOIN US ON...

 
LOGIN :

Register | Disclaimer

   EN    FR    IT 

 









Legend :    VFR   Marginal VFR   IFR   Intensive IFR   Very Intensive IFR
Visi :
Ceiling :
>= 8 km
>= 3000ft
5 to 8 km
1000 to 3000 ft
1500m to 5 km
500 to 1000 ft
800 to 1500m
200 to 500 ft
< 800m
< 200 ft
Symbols :   Thunderstorms  Fog  Heavy snow  Heavy precipitations  Wind > 20 kt






- Airport Elevation : 14 ft
- IATA code : YVR


CYVR - Vancouver International

CURRENT METAR :
  • 190700Z 11006KT 12SM -RA SCT063 OVC079 13/12 A2976 RMK SC4AS4 SLP078

EXPIRED METARs :
  • 190650Z 11008KT 12SM -RA BKN046 OVC074 13/12 A2976 RMK SC5AS3 SLP078
  • 190610Z 12006KT 10SM RA SCT051 BKN060 OVC071 13/12 A2975 RMK SC4NS2AS2 SLP076
  • 190544Z 13008KT 12SM -RA BKN039 BKN056 OVC067 13/12 A2974 RMK SC5SC2AS1 SLP074
  • 190500Z 11010KT 15SM BKN032 BKN050 OVC100 13/12 A2974 RMK SC5SC2AS1 SLP071 DENSITY ALT 100FT

TAF TAF CYVR
Valid from the 19 at 06:00 until the 20 at 12:00 UTC


190538Z 1906/2012 10008KT P6SM SCT015 OVC040
TEMPO 1906/1918 3SM -SHRA BR BKN015 OVC030
PROB30 1910/1918 VRB15G25KT 1SM TSRA BR SCT005 OVC015CB
FM191800 16008KT P6SM SCT020 BKN040
TEMPO 1918/2003 6SM -RA BR BKN020
FM200300 24008KT P6SM SCT015 BKN030
TEMPO 2003/2012 3SM -SHRA BR BKN015 OVC030 RMK NXT FCST BY 190900Z
CZVR FIR / North America



MET'MAP, your aeronautical weather chart ! - Copyright ORBIFLY December 2007 - Disclaimer

ORBIFLY MET'MAP TEAM :

Programming & Development : Alexandra Zaïnal
Concept & original design : Baudouin d'Aumeries
Assistance for programming : Marc-Olivier Méhu
Technical & hardware support : Manuel Goepfert

Contact : metmap@orbifly.com




SOURCES & CREDITS :

   NOAA       Earth
Advisory